Time;durP1;ratioP1;P1;durP2;ratioP2;P2;SDS_P1;SDS_P2;PMS_P1;PMS_P2;Temp;Humidity;BMP_temperature;BMP_pressure;BME280_temperature;BME280_humidity;BME280_pressure;Samples;Min_cycle;Max_cycle;Signal;HPM_P1;HPM_P2
2023/01/05 00:02:15;;;;;;;;;4.00;2.00;;;;;;;;5088460;28;9067;-80
2023/01/05 00:04:42;;;;;;;;;2.33;2.33;;;;;;;;5064667;28;9902;-80
2023/01/05 00:07:11;;;;;;;;;5.00;3.33;;;;;;;;5068029;28;9021;-81
2023/01/05 00:09:39;;;;;;;;;3.67;1.67;;;;;;;;5083138;28;9002;-80
2023/01/05 00:23:19;;;;;;;;;0.75;0.75;;;;;;;;5084912;28;9055;-80
2023/01/05 00:25:47;;;;;;;;;1.00;1.00;;;;;;;;5061581;28;8869;-80
2023/01/05 00:28:14;;;;;;;;;1.50;0.00;;;;;;;;5083439;28;8930;-80
2023/01/05 00:30:43;;;;;;;;;1.00;1.00;;;;;;;;5091986;28;8859;-81
2023/01/05 00:33:11;;;;;;;;;3.67;1.67;;;;;;;;5085608;28;9030;-80
2023/01/05 00:35:38;;;;;;;;;3.00;2.00;;;;;;;;5085534;28;8936;-80
2023/01/05 00:38:07;;;;;;;;;0.00;0.00;;;;;;;;5085226;28;8995;-80
2023/01/05 00:40:36;;;;;;;;;1.00;0.67;;;;;;;;5086637;28;8947;-80
2023/01/05 00:43:05;;;;;;;;;1.00;1.00;;;;;;;;5068615;28;9004;-80
2023/01/05 00:45:32;;;;;;;;;2.00;2.00;;;;;;;;5080574;28;9229;-80
2023/01/05 00:47:59;;;;;;;;;2.33;1.00;;;;;;;;5081178;28;9116;-80
2023/01/05 00:50:27;;;;;;;;;2.33;1.00;;;;;;;;5063934;28;9078;-80
2023/01/05 00:52:54;;;;;;;;;1.00;1.00;;;;;;;;5086098;28;9191;-80
2023/01/05 00:55:22;;;;;;;;;2.00;2.00;;;;;;;;5080575;28;9238;-80
2023/01/05 00:57:52;;;;;;;;;5.33;2.00;;;;;;;;5067115;28;9241;-80
2023/01/05 01:00:20;;;;;;;;;1.00;1.00;;;;;;;;5067130;28;9104;-80
2023/01/05 01:02:47;;;;;;;;;3.00;1.33;;;;;;;;5081509;28;9144;-80
2023/01/05 01:05:15;;;;;;;;;1.00;0.67;;;;;;;;5081499;28;9202;-80
2023/01/05 01:07:42;;;;;;;;;3.00;1.33;;;;;;;;5062337;28;9244;-81
2023/01/05 01:10:12;;;;;;;;;1.67;0.67;;;;;;;;5082705;28;9775;-80
2023/01/05 01:12:40;;;;;;;;;2.67;1.00;;;;;;;;5059182;28;9152;-80
2023/01/05 01:15:12;;;;;;;;;0.00;0.00;;;;;;;;5063433;28;9273;-80
2023/01/05 01:17:40;;;;;;;;;3.00;2.00;;;;;;;;5085519;28;9261;-80
2023/01/05 01:20:09;;;;;;;;;2.33;1.00;;;;;;;;5082463;28;9167;-81
2023/01/05 01:22:37;;;;;;;;;2.00;2.00;;;;;;;;5064047;28;9328;-81
2023/01/05 01:25:05;;;;;;;;;2.00;1.00;;;;;;;;5079851;28;9520;-80
2023/01/05 01:27:33;;;;;;;;;3.00;1.33;;;;;;;;5084207;28;9441;-79
2023/01/05 01:30:00;;;;;;;;;4.33;2.00;;;;;;;;5081999;28;9997;-80
2023/01/05 01:32:29;;;;;;;;;1.67;1.00;;;;;;;;5082746;28;9228;-80
2023/01/05 01:34:56;;;;;;;;;5.00;2.00;;;;;;;;5082828;28;9327;-80
2023/01/05 01:37:23;;;;;;;;;4.00;1.00;;;;;;;;5066940;28;9336;-81
2023/01/05 01:39:51;;;;;;;;;1.33;1.00;;;;;;;;5082993;28;9394;-81
2023/01/05 01:42:20;;;;;;;;;2.00;2.00;;;;;;;;5069961;28;9375;-80
2023/01/05 01:44:55;;;;;;;;;5.00;0.67;;;;;;;;5072800;28;9231;-80
2023/01/05 01:47:30;;;;;;;;;2.00;2.00;;;;;;;;5088118;28;9333;-80
2023/01/05 01:49:59;;;;;;;;;3.00;1.00;;;;;;;;5089186;28;9473;-80
2023/01/05 01:52:28;;;;;;;;;1.00;1.00;;;;;;;;5087669;28;9290;-81
2023/01/05 01:54:56;;;;;;;;;3.00;1.50;;;;;;;;5043428;28;10083;-80
2023/01/05 01:57:25;;;;;;;;;1.00;1.00;;;;;;;;5046245;28;9383;-80
2023/01/05 01:59:53;;;;;;;;;3.75;1.50;;;;;;;;5062970;28;9487;-80
2023/01/05 02:02:22;;;;;;;;;1.67;1.67;;;;;;;;5065566;28;9399;-79
2023/01/05 02:04:52;;;;;;;;;1.00;1.00;;;;;;;;5087834;28;9460;-81
2023/01/05 02:07:20;;;;;;;;;3.00;1.00;;;;;;;;5069301;28;9312;-81
2023/01/05 02:09:47;;;;;;;;;0.25;0.25;;;;;;;;5069049;28;9436;-81
2023/01/05 02:12:27;;;;;;;;;1.00;1.00;;;;;;;;5096342;28;9475;-80
2023/01/05 02:15:01;;;;;;;;;2.75;1.00;;;;;;;;5088676;28;9529;-80
2023/01/05 02:17:36;;;;;;;;;3.33;1.67;;;;;;;;5067806;28;9466;-81
2023/01/05 02:20:35;;;;;;;;;2.00;0.67;;;;;;;;5085990;28;9456;-81
2023/01/05 02:23:22;;;;;;;;;3.25;2.00;;;;;;;;5080123;28;9378;-81
2023/01/05 02:26:16;;;;;;;;;0.50;0.50;;;;;;;;5069878;28;9438;-80
2023/01/05 02:28:59;;;;;;;;;1.00;1.00;;;;;;;;5083121;28;9393;-80
2023/01/05 02:31:30;;;;;;;;;1.50;1.00;;;;;;;;5071989;28;9571;-81
2023/01/05 02:34:06;;;;;;;;;6.25;1.00;;;;;;;;5084370;28;9478;-80
2023/01/05 02:36:39;;;;;;;;;3.00;1.00;;;;;;;;5077050;28;9499;-81
2023/01/05 02:39:12;;;;;;;;;4.00;2.00;;;;;;;;5081004;28;9593;-81
2023/01/05 02:41:46;;;;;;;;;4.25;2.00;;;;;;;;5089732;28;9552;-81
2023/01/05 02:44:16;;;;;;;;;2.25;2.00;;;;;;;;5086862;28;10294;-81
2023/01/05 02:46:45;;;;;;;;;2.25;1.00;;;;;;;;5083801;28;9655;-81
2023/01/05 02:49:15;;;;;;;;;0.75;0.75;;;;;;;;5092524;28;9581;-81
2023/01/05 02:51:49;;;;;;;;;3.75;2.25;;;;;;;;5049762;28;9575;-81
2023/01/05 02:54:21;;;;;;;;;2.00;2.00;;;;;;;;5068248;28;9621;-80
2023/01/05 02:56:51;;;;;;;;;0.25;0.25;;;;;;;;5077639;28;9594;-81
2023/01/05 02:59:23;;;;;;;;;3.00;2.00;;;;;;;;5041766;28;9570;-81
2023/01/05 03:01:56;;;;;;;;;2.00;1.00;;;;;;;;5034399;28;9536;-81
2023/01/05 03:04:26;;;;;;;;;1.00;0.50;;;;;;;;5056777;28;9575;-80
2023/01/05 03:06:56;;;;;;;;;1.25;1.25;;;;;;;;5002647;28;9405;-80
2023/01/05 03:09:27;;;;;;;;;3.50;1.00;;;;;;;;5064541;28;9547;-80
2023/01/05 03:14:49;;;;;;;;;2.00;0.75;;;;;;;;5057386;28;9391;-81
2023/01/05 03:17:22;;;;;;;;;3.00;1.00;;;;;;;;5028098;28;9394;-81
2023/01/05 03:19:49;;;;;;;;;2.00;0.75;;;;;;;;5023630;28;9466;-81
2023/01/05 03:36:27;;;;;;;;;1.75;1.00;;;;;;;;5051507;28;9500;-81
2023/01/05 03:38:57;;;;;;;;;2.00;2.00;;;;;;;;5031976;28;9540;-82
2023/01/05 03:41:25;;;;;;;;;3.00;2.00;;;;;;;;5024206;28;9381;-81
2023/01/05 03:43:53;;;;;;;;;1.00;1.00;;;;;;;;5030783;28;9466;-81
2023/01/05 03:46:22;;;;;;;;;3.00;1.67;;;;;;;;5017776;28;9413;-81
2023/01/05 03:48:51;;;;;;;;;3.00;1.00;;;;;;;;5024133;28;9436;-80
2023/01/05 03:51:19;;;;;;;;;1.00;1.00;;;;;;;;5033846;28;9348;-81
2023/01/05 03:53:46;;;;;;;;;0.00;0.00;;;;;;;;5013517;28;9460;-82
2023/01/05 03:56:15;;;;;;;;;3.33;2.00;;;;;;;;5024035;28;10126;-81
2023/01/05 03:58:43;;;;;;;;;1.00;1.00;;;;;;;;5074881;28;9449;-81
2023/01/05 04:01:10;;;;;;;;;1.67;1.67;;;;;;;;5065357;28;9760;-81
2023/01/05 04:03:39;;;;;;;;;3.00;1.33;;;;;;;;5057410;28;9306;-82
2023/01/05 04:06:08;;;;;;;;;0.33;0.33;;;;;;;;5076835;28;9426;-81
2023/01/05 04:08:36;;;;;;;;;1.00;1.00;;;;;;;;5075415;28;9305;-80
2023/01/05 04:11:14;;;;;;;;;1.00;1.00;;;;;;;;5076896;28;9352;-81
2023/01/05 04:13:41;;;;;;;;;1.67;1.67;;;;;;;;5078209;28;9237;-81
2023/01/05 04:16:10;;;;;;;;;3.33;1.33;;;;;;;;5075929;28;10172;-81
2023/01/05 04:18:37;;;;;;;;;0.67;0.67;;;;;;;;5081270;28;9438;-81
2023/01/05 04:21:07;;;;;;;;;2.67;1.00;;;;;;;;5082110;28;9323;-82
2023/01/05 04:23:35;;;;;;;;;2.67;0.00;;;;;;;;5078410;28;9256;-82
2023/01/05 04:26:03;;;;;;;;;1.00;1.00;;;;;;;;5082789;28;9262;-81
2023/01/05 04:28:30;;;;;;;;;1.00;1.00;;;;;;;;5065205;28;9519;-82
2023/01/05 04:30:58;;;;;;;;;1.00;1.00;;;;;;;;5067349;28;9491;-82
2023/01/05 04:33:26;;;;;;;;;1.00;1.00;;;;;;;;5063238;28;9320;-82
2023/01/05 04:35:53;;;;;;;;;2.00;0.00;;;;;;;;5067943;28;9340;-82
2023/01/05 04:38:22;;;;;;;;;1.33;0.00;;;;;;;;5085623;28;9338;-81
2023/01/05 04:40:50;;;;;;;;;1.00;1.00;;;;;;;;5081570;28;9265;-81
2023/01/05 04:43:18;;;;;;;;;3.00;1.00;;;;;;;;5053533;28;9485;-81
2023/01/05 04:45:48;;;;;;;;;5.25;2.25;;;;;;;;5084988;28;9390;-81
2023/01/05 04:48:15;;;;;;;;;2.00;2.00;;;;;;;;5068189;28;9459;-81
2023/01/05 04:50:43;;;;;;;;;3.33;0.33;;;;;;;;5081855;28;9418;-81
2023/01/05 04:53:11;;;;;;;;;2.00;2.00;;;;;;;;5079738;28;9317;-81
2023/01/05 04:55:40;;;;;;;;;2.00;1.67;;;;;;;;5077951;28;9346;-82
2023/01/05 04:58:07;;;;;;;;;1.00;1.00;;;;;;;;5065601;28;9305;-81
2023/01/05 05:00:36;;;;;;;;;0.00;0.00;;;;;;;;5061815;28;9160;-81
2023/01/05 05:03:04;;;;;;;;;3.33;2.00;;;;;;;;5081024;28;9340;-80
2023/01/05 05:05:31;;;;;;;;;2.50;2.25;;;;;;;;5085092;28;9425;-82
2023/01/05 05:07:58;;;;;;;;;1.67;1.00;;;;;;;;5079286;28;9418;-81
2023/01/05 05:10:26;;;;;;;;;3.00;1.00;;;;;;;;5085769;28;9407;-81
2023/01/05 05:12:55;;;;;;;;;6.00;1.00;;;;;;;;5058204;28;9350;-82
2023/01/05 05:15:23;;;;;;;;;3.00;1.00;;;;;;;;5062699;28;9339;-81
2023/01/05 05:17:50;;;;;;;;;0.33;0.33;;;;;;;;5063473;28;10155;-81
2023/01/05 05:20:17;;;;;;;;;1.00;1.00;;;;;;;;5079444;28;9401;-81
2023/01/05 05:22:45;;;;;;;;;4.00;2.75;;;;;;;;5070388;28;9321;-81
2023/01/05 05:25:12;;;;;;;;;5.00;2.00;;;;;;;;5062852;28;9610;-81
2023/01/05 05:27:40;;;;;;;;;1.67;1.00;;;;;;;;5079522;28;9314;-81
2023/01/05 05:30:11;;;;;;;;;3.50;2.50;;;;;;;;5047680;28;9420;-81
2023/01/05 05:32:39;;;;;;;;;1.00;1.00;;;;;;;;5042124;28;9392;-81
2023/01/05 05:35:07;;;;;;;;;1.00;1.00;;;;;;;;5075463;28;9389;-80
2023/01/05 05:37:34;;;;;;;;;3.67;2.33;;;;;;;;5057346;28;9460;-81
2023/01/05 05:40:02;;;;;;;;;1.00;1.00;;;;;;;;5060901;28;9502;-81
2023/01/05 05:42:30;;;;;;;;;0.33;0.00;;;;;;;;5014483;28;11843;-81
2023/01/05 05:44:57;;;;;;;;;4.75;2.50;;;;;;;;5048111;28;9377;-81
2023/01/05 05:47:26;;;;;;;;;5.00;1.75;;;;;;;;5071496;28;9392;-81
2023/01/05 05:49:54;;;;;;;;;6.50;2.25;;;;;;;;5031464;28;9596;-82
2023/01/05 05:52:21;;;;;;;;;2.75;2.00;;;;;;;;5055879;28;9494;-81
2023/01/05 05:54:48;;;;;;;;;2.50;1.00;;;;;;;;5061655;28;9535;-81
2023/01/05 05:57:16;;;;;;;;;4.00;2.75;;;;;;;;5073792;28;9440;-81
2023/01/05 05:59:44;;;;;;;;;4.25;1.50;;;;;;;;5053384;28;9549;-80
2023/01/05 06:02:11;;;;;;;;;2.00;1.00;;;;;;;;5062238;28;9528;-84
2023/01/05 06:04:40;;;;;;;;;0.75;0.75;;;;;;;;5068864;28;9625;-81
2023/01/05 06:07:07;;;;;;;;;3.50;1.50;;;;;;;;5062308;28;9597;-81
2023/01/05 06:09:34;;;;;;;;;2.75;1.00;;;;;;;;5033916;28;9513;-81
2023/01/05 06:12:02;;;;;;;;;2.75;1.00;;;;;;;;5061701;28;9468;-81
2023/01/05 06:14:30;;;;;;;;;1.67;1.67;;;;;;;;5064212;28;9502;-82
2023/01/05 06:16:57;;;;;;;;;0.00;0.00;;;;;;;;5077476;28;9462;-82
2023/01/05 06:19:25;;;;;;;;;3.50;2.00;;;;;;;;4991274;28;9358;-82
2023/01/05 06:21:53;;;;;;;;;10.25;4.00;;;;;;;;4988298;28;9557;-81
2023/01/05 06:24:21;;;;;;;;;5.75;3.00;;;;;;;;5046813;28;9586;-81
2023/01/05 06:26:49;;;;;;;;;2.75;2.75;;;;;;;;5066232;28;10351;-82
2023/01/05 06:29:16;;;;;;;;;1.00;1.00;;;;;;;;5078947;28;9372;-84
2023/01/05 06:31:43;;;;;;;;;1.00;1.00;;;;;;;;5057939;28;9467;-83
2023/01/05 06:34:11;;;;;;;;;3.00;1.25;;;;;;;;5081759;28;9310;-82
2023/01/05 06:36:38;;;;;;;;;4.75;2.00;;;;;;;;5078343;28;9578;-82
2023/01/05 06:39:07;;;;;;;;;1.00;1.00;;;;;;;;5061436;28;9501;-82
2023/01/05 06:41:34;;;;;;;;;2.33;1.00;;;;;;;;5063456;28;9398;-82
2023/01/05 06:44:01;;;;;;;;;4.00;2.00;;;;;;;;5075361;28;9383;-82
2023/01/05 06:46:29;;;;;;;;;1.33;0.67;;;;;;;;5076667;28;10360;-81
2023/01/05 06:48:57;;;;;;;;;1.25;1.00;;;;;;;;5059999;28;9561;-82
2023/01/05 06:51:25;;;;;;;;;2.00;2.00;;;;;;;;5061938;28;9389;-83
2023/01/05 06:53:52;;;;;;;;;3.00;3.00;;;;;;;;5077089;28;9393;-82
2023/01/05 06:56:21;;;;;;;;;2.00;2.00;;;;;;;;5060331;28;9331;-82
2023/01/05 06:58:49;;;;;;;;;3.00;1.67;;;;;;;;5056993;28;9340;-81
2023/01/05 07:01:16;;;;;;;;;2.33;1.00;;;;;;;;5040308;28;9187;-82
2023/01/05 07:03:44;;;;;;;;;1.33;1.33;;;;;;;;5059116;28;9239;-82
2023/01/05 07:06:15;;;;;;;;;3.00;1.00;;;;;;;;5011309;28;9317;-81
2023/01/05 07:08:43;;;;;;;;;1.00;1.00;;;;;;;;5059052;28;9325;-82
2023/01/05 07:11:10;;;;;;;;;1.00;1.00;;;;;;;;5058095;28;9999;-81
2023/01/05 07:13:39;;;;;;;;;0.67;0.67;;;;;;;;5056723;28;9103;-79
2023/01/05 07:16:07;;;;;;;;;1.00;1.00;;;;;;;;5057951;28;9201;-81
2023/01/05 07:18:35;;;;;;;;;1.00;1.00;;;;;;;;5038216;28;9335;-82
2023/01/05 07:21:02;;;;;;;;;2.33;2.00;;;;;;;;5036441;28;9295;-82
2023/01/05 07:23:30;;;;;;;;;2.33;2.33;;;;;;;;5041047;28;9263;-82
2023/01/05 07:26:00;;;;;;;;;10.50;8.50;;;;;;;;5036119;28;9388;-81
2023/01/05 07:28:28;;;;;;;;;9.50;6.75;;;;;;;;5035824;28;9548;-81
2023/01/05 07:30:57;;;;;;;;;5.75;5.75;;;;;;;;5056419;28;9476;-81
2023/01/05 07:33:25;;;;;;;;;5.00;5.00;;;;;;;;5038893;28;10445;-81
2023/01/05 07:35:53;;;;;;;;;5.75;5.25;;;;;;;;5022542;28;9666;-81
2023/01/05 07:38:20;;;;;;;;;7.00;5.50;;;;;;;;5040938;28;9635;-82
2023/01/05 07:40:48;;;;;;;;;8.75;7.25;;;;;;;;5057988;28;10036;-75
2023/01/05 07:43:15;;;;;;;;;8.25;6.50;;;;;;;;5072981;28;10414;-76
2023/01/05 07:45:42;;;;;;;;;9.00;9.00;;;;;;;;5056318;28;9816;-80
2023/01/05 07:48:11;;;;;;;;;8.50;8.50;;;;;;;;5054429;28;9733;-78
2023/01/05 07:50:39;;;;;;;;;13.75;9.75;;;;;;;;5057147;28;9666;-79
2023/01/05 07:53:06;;;;;;;;;6.00;6.00;;;;;;;;5013720;28;9836;-79
2023/01/05 07:55:34;;;;;;;;;5.50;4.25;;;;;;;;5059414;28;9626;-80
2023/01/05 07:58:01;;;;;;;;;10.25;8.00;;;;;;;;5071776;28;9555;-81
2023/01/05 08:00:29;;;;;;;;;5.75;5.75;;;;;;;;5060646;28;9751;-79
2023/01/05 08:02:57;;;;;;;;;2.00;2.00;;;;;;;;5077073;28;9525;-80
2023/01/05 08:05:32;;;;;;;;;3.00;2.00;;;;;;;;5061620;28;9391;-80
2023/01/05 08:08:00;;;;;;;;;3.00;1.00;;;;;;;;5061193;28;9375;-80
2023/01/05 08:10:30;;;;;;;;;3.33;2.00;;;;;;;;5079210;28;9440;-76
2023/01/05 08:15:47;;;;;;;;;3.00;1.75;;;;;;;;5083094;28;9413;-74
2023/01/05 08:18:14;;;;;;;;;2.75;1.25;;;;;;;;5085364;28;9492;-76
2023/01/05 08:20:43;;;;;;;;;3.25;3.00;;;;;;;;5082747;28;9395;-77
2023/01/05 08:23:10;;;;;;;;;4.00;2.75;;;;;;;;5082862;28;9413;-77
2023/01/05 08:25:38;;;;;;;;;4.00;4.00;;;;;;;;5080540;28;9517;-75
2023/01/05 08:28:05;;;;;;;;;2.25;2.25;;;;;;;;5062224;28;9530;-75
2023/01/05 08:30:32;;;;;;;;;2.33;2.33;;;;;;;;5047225;28;9549;-73
2023/01/05 08:33:00;;;;;;;;;3.00;3.00;;;;;;;;5081058;28;9508;-75
2023/01/05 08:35:27;;;;;;;;;5.25;4.50;;;;;;;;5073643;28;9326;-74
2023/01/05 08:37:56;;;;;;;;;1.33;1.33;;;;;;;;5075717;28;9506;-74
2023/01/05 08:40:24;;;;;;;;;2.00;2.00;;;;;;;;5079555;28;9364;-74
2023/01/05 08:42:51;;;;;;;;;5.00;2.67;;;;;;;;5078160;28;10072;-74
2023/01/05 08:45:18;;;;;;;;;1.00;1.00;;;;;;;;5063233;28;9394;-74
2023/01/05 08:47:46;;;;;;;;;4.00;3.00;;;;;;;;5076755;28;9205;-75
2023/01/05 08:50:13;;;;;;;;;3.67;2.00;;;;;;;;5079314;28;9331;-75
2023/01/05 08:52:41;;;;;;;;;5.00;3.00;;;;;;;;5059035;28;9204;-74
2023/01/05 08:55:10;;;;;;;;;3.00;1.67;;;;;;;;5061546;28;9383;-72
2023/01/05 08:57:38;;;;;;;;;1.00;1.00;;;;;;;;5081706;28;9218;-74
2023/01/05 09:00:06;;;;;;;;;2.00;1.67;;;;;;;;5080637;28;9100;-75
2023/01/05 09:02:33;;;;;;;;;2.00;2.00;;;;;;;;5080336;28;9198;-76
2023/01/05 09:05:01;;;;;;;;;1.33;1.00;;;;;;;;5076316;28;9217;-73
2023/01/05 09:07:29;;;;;;;;;1.00;1.00;;;;;;;;5079295;28;9093;-74
2023/01/05 09:09:56;;;;;;;;;3.00;1.33;;;;;;;;5079768;28;9717;-74
2023/01/05 09:12:25;;;;;;;;;2.00;1.00;;;;;;;;5078127;28;9039;-75
2023/01/05 09:14:55;;;;;;;;;1.50;1.00;;;;;;;;5076695;28;8983;-72
2023/01/05 09:17:22;;;;;;;;;0.67;0.67;;;;;;;;5078050;28;8846;-74
2023/01/05 09:19:50;;;;;;;;;1.00;1.00;;;;;;;;5080405;28;8935;-73
2023/01/05 09:22:18;;;;;;;;;4.00;1.00;;;;;;;;5080312;28;9002;-74
2023/01/05 09:24:45;;;;;;;;;2.00;2.00;;;;;;;;5063644;28;9151;-74
2023/01/05 09:27:13;;;;;;;;;3.00;1.00;;;;;;;;5058403;28;9012;-74
2023/01/05 09:29:42;;;;;;;;;1.00;1.00;;;;;;;;5074893;28;8852;-74
2023/01/05 09:32:10;;;;;;;;;1.00;1.00;;;;;;;;5057037;28;9796;-74
2023/01/05 09:34:37;;;;;;;;;1.25;1.25;;;;;;;;5069203;28;8927;-74
2023/01/05 09:37:05;;;;;;;;;2.75;2.75;;;;;;;;5076563;28;8856;-74
2023/01/05 09:39:32;;;;;;;;;4.00;0.25;;;;;;;;5079534;28;9045;-74
2023/01/05 09:42:03;;;;;;;;;1.25;1.00;;;;;;;;5079138;28;8914;-74
2023/01/05 09:44:32;;;;;;;;;1.00;1.00;;;;;;;;5076602;28;8852;-74
2023/01/05 09:47:05;;;;;;;;;0.75;0.75;;;;;;;;5059591;28;8850;-74
2023/01/05 09:49:34;;;;;;;;;2.75;0.50;;;;;;;;5076314;28;8849;-74
2023/01/05 09:52:05;;;;;;;;;1.00;1.00;;;;;;;;5076762;28;8880;-74
2023/01/05 09:54:34;;;;;;;;;2.00;0.50;;;;;;;;5072511;28;8864;-74
2023/01/05 09:57:02;;;;;;;;;1.00;1.00;;;;;;;;5074633;28;8870;-74
2023/01/05 09:59:31;;;;;;;;;2.50;2.50;;;;;;;;5079206;28;8840;-76
2023/01/05 10:02:03;;;;;;;;;1.50;1.50;;;;;;;;5074458;28;8905;-78
2023/01/05 10:04:33;;;;;;;;;1.00;1.00;;;;;;;;5052574;28;8880;-77
2023/01/05 10:07:03;;;;;;;;;0.00;0.00;;;;;;;;5069802;28;9012;-77
2023/01/05 10:09:32;;;;;;;;;2.00;0.00;;;;;;;;5062519;28;8947;-75
2023/01/05 10:14:49;;;;;;;;;0.00;0.00;;;;;;;;5077463;28;9584;-74
2023/01/05 10:17:20;;;;;;;;;0.00;0.00;;;;;;;;5075778;28;8853;-75
2023/01/05 10:19:49;;;;;;;;;1.75;0.75;;;;;;;;5062604;28;8988;-76
2023/01/05 10:22:36;;;;;;;;;1.00;0.00;;;;;;;;5076144;28;9627;-74
2023/01/05 10:25:07;;;;;;;;;1.75;0.00;;;;;;;;5077633;28;9059;-74
2023/01/05 10:27:42;;;;;;;;;0.25;0.00;;;;;;;;5077029;28;8842;-72
2023/01/05 10:30:16;;;;;;;;;0.00;0.00;;;;;;;;5027127;28;8913;-75
2023/01/05 10:32:56;;;;;;;;;0.25;0.25;;;;;;;;5012190;28;9803;-75
2023/01/05 10:35:43;;;;;;;;;0.00;0.00;;;;;;;;5060802;27;8860;-74
2023/01/05 10:38:21;;;;;;;;;0.00;0.00;;;;;;;;5052004;28;8962;-74
2023/01/05 10:40:58;;;;;;;;;0.00;0.00;;;;;;;;5076946;28;8893;-73
2023/01/05 10:44:00;;;;;;;;;1.00;0.25;;;;;;;;5077909;28;8874;-74
2023/01/05 10:46:27;;;;;;;;;0.50;0.50;;;;;;;;5074531;28;8982;-74
2023/01/05 10:48:56;;;;;;;;;0.00;0.00;;;;;;;;5072905;28;8945;-77
2023/01/05 10:51:24;;;;;;;;;2.00;1.00;;;;;;;;5077235;28;8888;-74
2023/01/05 10:53:51;;;;;;;;;0.50;0.50;;;;;;;;5059468;28;8866;-73
2023/01/05 10:56:26;;;;;;;;;0.00;0.00;;;;;;;;5074549;28;8802;-74
2023/01/05 10:59:08;;;;;;;;;0.25;0.25;;;;;;;;5077300;28;8824;-75
2023/01/05 11:01:36;;;;;;;;;0.00;0.00;;;;;;;;5075991;28;8868;-76
2023/01/05 11:04:09;;;;;;;;;0.00;0.00;;;;;;;;5078262;28;8852;-74
2023/01/05 11:06:37;;;;;;;;;0.00;0.00;;;;;;;;5076837;28;8849;-74
2023/01/05 11:09:16;;;;;;;;;0.00;0.00;;;;;;;;5075903;28;9624;-76
2023/01/05 11:11:44;;;;;;;;;1.50;0.00;;;;;;;;5082433;28;8829;-76
2023/01/05 11:14:16;;;;;;;;;2.00;0.25;;;;;;;;5075552;28;8865;-76
2023/01/05 11:16:48;;;;;;;;;1.00;1.00;;;;;;;;5061184;28;8866;-76
2023/01/05 11:19:18;;;;;;;;;1.00;1.00;;;;;;;;5075692;28;9662;-74
2023/01/05 11:21:46;;;;;;;;;1.00;1.00;;;;;;;;5077091;28;8857;-75
2023/01/05 11:24:31;;;;;;;;;1.00;1.00;;;;;;;;5074364;28;8835;-74
2023/01/05 11:27:01;;;;;;;;;0.00;0.00;;;;;;;;5060658;28;8839;-73
2023/01/05 11:29:30;;;;;;;;;1.00;1.00;;;;;;;;5062112;28;8881;-76
2023/01/05 11:32:00;;;;;;;;;0.00;0.00;;;;;;;;5077844;28;8838;-77
2023/01/05 11:34:38;;;;;;;;;1.00;1.00;;;;;;;;5078158;28;8893;-78
2023/01/05 11:37:07;;;;;;;;;0.00;0.00;;;;;;;;5057287;28;8859;-77
2023/01/05 11:39:38;;;;;;;;;1.00;1.00;;;;;;;;5073732;28;8842;-77
2023/01/05 11:42:15;;;;;;;;;0.00;0.00;;;;;;;;5073967;28;8864;-76
2023/01/05 11:44:44;;;;;;;;;1.00;1.00;;;;;;;;5077529;28;8856;-76
2023/01/05 11:47:23;;;;;;;;;0.00;0.00;;;;;;;;5080441;28;8856;-76
2023/01/05 11:50:00;;;;;;;;;0.00;0.00;;;;;;;;5075868;28;9643;-75
2023/01/05 11:52:29;;;;;;;;;0.00;0.00;;;;;;;;5079932;28;8842;-80
2023/01/05 11:54:56;;;;;;;;;0.00;0.00;;;;;;;;5082088;28;8845;-75
2023/01/05 11:57:25;;;;;;;;;1.25;0.00;;;;;;;;5085005;28;8883;-74
2023/01/05 11:59:54;;;;;;;;;0.00;0.00;;;;;;;;5083225;28;8822;-75
2023/01/05 12:02:58;;;;;;;;;0.50;0.50;;;;;;;;5075191;28;8946;-75
2023/01/05 12:05:30;;;;;;;;;0.00;0.00;;;;;;;;5081729;28;8842;-76
2023/01/05 12:08:02;;;;;;;;;0.00;0.00;;;;;;;;5079567;28;8838;-75
2023/01/05 12:10:50;;;;;;;;;0.00;0.00;;;;;;;;5081201;28;9604;-76
2023/01/05 12:13:44;;;;;;;;;0.00;0.00;;;;;;;;5055045;28;8852;-76
2023/01/05 12:16:27;;;;;;;;;0.00;0.00;;;;;;;;5082805;28;9687;-77
2023/01/05 12:19:06;;;;;;;;;0.00;0.00;;;;;;;;5045367;28;8840;-75
2023/01/05 12:21:38;;;;;;;;;0.00;0.00;;;;;;;;5062716;28;8844;-76
2023/01/05 12:24:36;;;;;;;;;0.00;0.00;;;;;;;;5079499;28;8857;-76
2023/01/05 12:27:14;;;;;;;;;0.00;0.00;;;;;;;;5078509;28;8841;-75
2023/01/05 12:29:53;;;;;;;;;0.00;0.00;;;;;;;;5064757;28;8965;-75
2023/01/05 12:32:34;;;;;;;;;0.00;0.00;;;;;;;;5080690;28;8857;-74
2023/01/05 12:35:22;;;;;;;;;0.00;0.00;;;;;;;;5082751;28;9004;-75
2023/01/05 12:38:01;;;;;;;;;0.25;0.00;;;;;;;;5078348;28;8838;-75
2023/01/05 12:40:40;;;;;;;;;0.00;0.00;;;;;;;;5062406;28;8832;-76
2023/01/05 12:43:10;;;;;;;;;0.00;0.00;;;;;;;;5062084;28;8834;-76
2023/01/05 12:46:03;;;;;;;;;0.00;0.00;;;;;;;;5062783;28;8850;-75
2023/01/05 12:48:33;;;;;;;;;0.00;0.00;;;;;;;;5074053;28;8854;-75
2023/01/05 12:51:07;;;;;;;;;0.00;0.00;;;;;;;;5082426;28;8848;-75
2023/01/05 12:53:45;;;;;;;;;0.00;0.00;;;;;;;;5077837;28;8869;-75
2023/01/05 12:56:20;;;;;;;;;0.00;0.00;;;;;;;;5079611;28;9246;-75
2023/01/05 12:58:54;;;;;;;;;0.00;0.00;;;;;;;;5044820;28;9683;-75
2023/01/05 13:01:26;;;;;;;;;0.00;0.00;;;;;;;;5043899;28;9026;-75
2023/01/05 13:03:57;;;;;;;;;0.00;0.00;;;;;;;;5062452;28;8845;-75
2023/01/05 13:06:25;;;;;;;;;0.00;0.00;;;;;;;;5061148;28;8958;-75
2023/01/05 13:09:00;;;;;;;;;0.00;0.00;;;;;;;;5010110;28;8937;-75
2023/01/05 13:11:34;;;;;;;;;0.00;0.00;;;;;;;;5062233;28;8821;-75
2023/01/05 13:14:05;;;;;;;;;0.00;0.00;;;;;;;;5060807;28;8878;-75
2023/01/05 13:16:39;;;;;;;;;0.00;0.00;;;;;;;;5025169;28;9017;-76
2023/01/05 13:19:12;;;;;;;;;0.00;0.00;;;;;;;;5061273;28;9660;-75
2023/01/05 13:21:44;;;;;;;;;0.00;0.00;;;;;;;;5059649;28;9006;-75
2023/01/05 13:24:21;;;;;;;;;0.50;0.00;;;;;;;;5042234;28;8919;-74
2023/01/05 13:26:49;;;;;;;;;0.00;0.00;;;;;;;;5041927;28;8860;-75
2023/01/05 13:29:23;;;;;;;;;0.00;0.00;;;;;;;;5060910;28;8863;-75
2023/01/05 13:32:21;;;;;;;;;0.00;0.00;;;;;;;;5039938;28;8865;-74
2023/01/05 13:35:01;;;;;;;;;0.00;0.00;;;;;;;;5059352;28;8840;-75
2023/01/05 13:38:06;;;;;;;;;0.00;0.00;;;;;;;;5061769;28;8844;-74
2023/01/05 13:41:03;;;;;;;;;0.00;0.00;;;;;;;;5055332;28;8878;-75
2023/01/05 13:44:05;;;;;;;;;0.00;0.00;;;;;;;;5060977;28;9674;-75
2023/01/05 13:46:56;;;;;;;;;0.50;0.50;;;;;;;;5050416;28;8825;-75
2023/01/05 13:49:56;;;;;;;;;0.00;0.00;;;;;;;;5060513;28;9037;-75
2023/01/05 13:52:32;;;;;;;;;1.00;0.25;;;;;;;;5048272;28;8862;-75
2023/01/05 13:55:02;;;;;;;;;0.00;0.00;;;;;;;;5060753;28;8837;-75
2023/01/05 13:57:37;;;;;;;;;0.75;0.75;;;;;;;;5051812;28;8858;-75
2023/01/05 14:00:09;;;;;;;;;0.00;0.00;;;;;;;;5072932;28;8846;-76
2023/01/05 14:02:38;;;;;;;;;0.00;0.00;;;;;;;;5072355;28;8885;-75
2023/01/05 14:05:14;;;;;;;;;0.00;0.00;;;;;;;;5077991;28;8846;-75
2023/01/05 14:07:42;;;;;;;;;0.00;0.00;;;;;;;;5065382;28;8832;-74
2023/01/05 14:10:20;;;;;;;;;0.00;0.00;;;;;;;;5067592;28;8892;-75
2023/01/05 14:12:52;;;;;;;;;0.00;0.00;;;;;;;;5071349;28;8969;-75
2023/01/05 14:15:41;;;;;;;;;0.00;0.00;;;;;;;;5074450;28;8824;-75
2023/01/05 14:18:09;;;;;;;;;0.00;0.00;;;;;;;;5061257;28;8856;-75
2023/01/05 14:20:40;;;;;;;;;0.00;0.00;;;;;;;;5056853;28;8865;-75
2023/01/05 14:23:45;;;;;;;;;0.00;0.00;;;;;;;;5069493;28;8877;-75
2023/01/05 14:26:13;;;;;;;;;0.00;0.00;;;;;;;;5070432;28;8851;-75
2023/01/05 14:28:44;;;;;;;;;0.00;0.00;;;;;;;;5063779;28;8857;-75
2023/01/05 14:31:36;;;;;;;;;0.00;0.00;;;;;;;;5077663;28;8921;-75
2023/01/05 14:34:08;;;;;;;;;0.00;0.00;;;;;;;;5062065;28;8856;-73
2023/01/05 14:36:39;;;;;;;;;0.00;0.00;;;;;;;;5083445;28;8888;-74
2023/01/05 14:39:19;;;;;;;;;0.00;0.00;;;;;;;;5075553;28;8864;-75
2023/01/05 14:41:55;;;;;;;;;0.00;0.00;;;;;;;;5079062;28;9632;-75
2023/01/05 14:44:27;;;;;;;;;2.00;2.00;;;;;;;;5073329;28;8844;-75
2023/01/05 14:46:56;;;;;;;;;0.00;0.00;;;;;;;;5067425;28;8942;-75
2023/01/05 14:49:31;;;;;;;;;0.00;0.00;;;;;;;;5069447;28;8876;-75
2023/01/05 14:52:00;;;;;;;;;0.00;0.00;;;;;;;;5037286;28;8864;-74
2023/01/05 14:54:59;;;;;;;;;0.00;0.00;;;;;;;;5080553;28;8827;-75
2023/01/05 14:57:38;;;;;;;;;0.00;0.00;;;;;;;;5080477;28;8876;-75
2023/01/05 15:00:13;;;;;;;;;0.00;0.00;;;;;;;;5082257;28;8836;-75
2023/01/05 15:02:53;;;;;;;;;0.00;0.00;;;;;;;;5076081;28;8950;-75
2023/01/05 15:05:21;;;;;;;;;1.50;0.00;;;;;;;;5078907;28;9687;-75
2023/01/05 15:08:03;;;;;;;;;0.00;0.00;;;;;;;;5076844;28;8860;-75
2023/01/05 15:10:49;;;;;;;;;0.00;0.00;;;;;;;;5072257;28;8943;-75
2023/01/05 15:13:42;;;;;;;;;0.00;0.00;;;;;;;;5050486;28;8848;-73
2023/01/05 15:16:18;;;;;;;;;1.00;1.00;;;;;;;;5071319;28;8858;-74
2023/01/05 15:19:18;;;;;;;;;0.00;0.00;;;;;;;;5050023;28;8867;-74
2023/01/05 15:22:04;;;;;;;;;0.00;0.00;;;;;;;;5070164;28;8916;-73
2023/01/05 15:25:10;;;;;;;;;0.00;0.00;;;;;;;;5070421;28;9726;-75
2023/01/05 15:27:54;;;;;;;;;0.00;0.00;;;;;;;;5069095;28;8876;-74
2023/01/05 15:30:47;;;;;;;;;0.00;0.00;;;;;;;;5073405;28;8864;-74
2023/01/05 15:33:20;;;;;;;;;0.00;0.00;;;;;;;;5073883;28;9677;-74
2023/01/05 15:35:51;;;;;;;;;0.00;0.00;;;;;;;;5072194;28;8867;-74
2023/01/05 15:38:21;;;;;;;;;0.00;0.00;;;;;;;;5072831;28;8931;-74
2023/01/05 15:40:49;;;;;;;;;0.00;0.00;;;;;;;;5073546;28;8861;-74
2023/01/05 15:43:17;;;;;;;;;0.00;0.00;;;;;;;;5073698;28;8873;-73
2023/01/05 15:45:52;;;;;;;;;0.00;0.00;;;;;;;;5074092;28;9677;-74
2023/01/05 15:48:27;;;;;;;;;0.00;0.00;;;;;;;;5076027;28;8838;-73
2023/01/05 15:50:57;;;;;;;;;0.00;0.00;;;;;;;;5069494;28;8850;-74
2023/01/05 15:53:27;;;;;;;;;0.00;0.00;;;;;;;;5072603;28;9643;-74
2023/01/05 15:55:55;;;;;;;;;0.00;0.00;;;;;;;;5066736;28;8850;-74
2023/01/05 15:58:24;;;;;;;;;1.25;0.25;;;;;;;;5072326;28;8950;-74